Time;durP1;ratioP1;P1;durP2;ratioP2;P2;SDS_P1;SDS_P2;PMS_P1;PMS_P2;Temp;Humidity;BMP_temperature;BMP_pressure;BME280_temperature;BME280_humidity;BME280_pressure;Samples;Min_cycle;Max_cycle;Signal;HPM_P1;HPM_P2
2023/11/24 00:02:18;;;;;;;3.55;1.33;;;;;;;8.92;100.00;102313.22;5037781;28;20365;-85
2023/11/24 00:04:44;;;;;;;2.03;1.35;;;;;;;9.09;100.00;102317.19;5021156;28;20094;-86
2023/11/24 00:07:10;;;;;;;4.68;1.17;;;;;;;9.14;100.00;102311.44;5038043;28;20483;-86
2023/11/24 00:09:39;;;;;;;5.05;0.90;;;;;;;9.19;100.00;102312.75;5038029;28;20079;-86
2023/11/24 00:12:11;;;;;;;4.45;0.95;;;;;;;9.25;100.00;102314.91;5038765;28;20098;-86
2023/11/24 00:14:38;;;;;;;5.05;0.93;;;;;;;9.27;100.00;102322.00;5054359;28;20061;-86
2023/11/24 00:17:04;;;;;;;4.00;0.90;;;;;;;9.29;100.00;102314.66;5037409;28;20059;-86
2023/11/24 00:19:30;;;;;;;4.72;1.42;;;;;;;9.35;100.00;102314.16;5038020;28;20087;-86
2023/11/24 00:21:56;;;;;;;5.32;1.20;;;;;;;9.29;100.00;102303.91;5021474;28;20430;-86
2023/11/24 00:24:23;;;;;;;2.90;1.10;;;;;;;9.33;100.00;102308.06;5037805;28;20429;-87
2023/11/24 00:26:51;;;;;;;4.03;0.90;;;;;;;9.26;100.00;102305.03;5037603;28;20036;-86
2023/11/24 00:29:17;;;;;;;2.63;0.90;;;;;;;9.16;100.00;102309.50;5053970;28;20450;-86
2023/11/24 00:31:45;;;;;;;1.88;0.98;;;;;;;9.15;100.00;102322.03;5054274;28;20044;-87
2023/11/24 00:34:14;;;;;;;3.15;1.17;;;;;;;9.09;100.00;102325.22;5054503;28;20044;-86
2023/11/24 00:36:46;;;;;;;4.93;1.10;;;;;;;8.94;100.00;102324.66;5053872;28;20033;-84
2023/11/24 00:39:13;;;;;;;2.60;1.05;;;;;;;8.85;100.00;102322.75;5037645;28;20052;-84
2023/11/24 00:41:41;;;;;;;1.05;0.88;;;;;;;8.78;100.00;102319.72;5037900;28;20491;-85
2023/11/24 00:44:09;;;;;;;4.63;1.10;;;;;;;8.65;100.00;102315.47;5021115;28;20040;-85
2023/11/24 00:46:38;;;;;;;5.63;1.15;;;;;;;8.48;100.00;102316.88;5037910;28;20037;-85
2023/11/24 00:49:07;;;;;;;2.78;0.82;;;;;;;8.47;100.00;102317.84;5037544;28;20067;-84
2023/11/24 00:51:35;;;;;;;3.40;1.10;;;;;;;8.42;100.00;102325.41;5037698;28;20044;-84
2023/11/24 00:54:00;;;;;;;2.25;0.93;;;;;;;8.40;100.00;102325.53;5021051;28;20037;-84
2023/11/24 00:56:26;;;;;;;1.95;0.77;;;;;;;8.29;100.00;102321.00;5037343;28;20108;-85
2023/11/24 00:58:52;;;;;;;2.63;1.10;;;;;;;8.32;100.00;102315.38;5020312;28;20037;-84
2023/11/24 01:01:20;;;;;;;4.38;1.15;;;;;;;8.21;100.00;102318.06;5037221;28;20356;-85
2023/11/24 01:03:46;;;;;;;5.07;0.95;;;;;;;8.14;100.00;102308.81;5020796;28;20044;-84
2023/11/24 01:06:12;;;;;;;2.45;0.85;;;;;;;8.11;100.00;102317.09;5053681;28;20040;-84
2023/11/24 01:08:39;;;;;;;2.40;0.95;;;;;;;8.04;100.00;102310.50;5036827;28;20029;-85
2023/11/24 01:11:05;;;;;;;5.15;0.90;;;;;;;8.09;100.00;102316.34;5036911;28;20467;-84
2023/11/24 01:13:32;;;;;;;2.80;0.90;;;;;;;8.13;100.00;102307.09;5004269;28;20037;-84
2023/11/24 01:15:59;;;;;;;3.42;1.10;;;;;;;8.06;100.00;102314.75;5053152;28;20083;-85
2023/11/24 01:18:25;;;;;;;4.97;1.40;;;;;;;8.11;100.00;102315.25;5020199;28;20025;-84
2023/11/24 01:20:51;;;;;;;7.20;1.40;;;;;;;8.20;100.00;102310.13;5053374;28;20115;-83
2023/11/24 01:23:17;;;;;;;5.95;1.15;;;;;;;8.26;100.00;102299.78;5020123;28;20029;-84
2023/11/24 01:25:42;;;;;;;4.57;1.40;;;;;;;8.38;100.00;102304.16;5053225;28;20353;-84
2023/11/24 01:28:10;;;;;;;4.00;1.10;;;;;;;8.43;100.00;102306.50;5020353;28;20364;-84
2023/11/24 01:30:40;;;;;;;4.03;1.50;;;;;;;8.50;100.00;102301.50;5021047;28;20124;-85
2023/11/24 01:33:06;;;;;;;2.75;1.00;;;;;;;8.60;100.00;102302.47;5036958;28;20037;-84
2023/11/24 01:35:31;;;;;;;7.68;1.40;;;;;;;8.69;100.00;102299.03;5036228;28;20029;-85
2023/11/24 01:37:59;;;;;;;5.53;1.10;;;;;;;8.73;100.00;102305.84;5019582;28;20037;-84
2023/11/24 01:40:28;;;;;;;3.25;0.82;;;;;;;8.79;100.00;102308.03;5036538;28;20127;-84
2023/11/24 01:42:53;;;;;;;4.75;1.00;;;;;;;8.86;100.00;102323.59;5052645;28;20033;-84
2023/11/24 01:45:21;;;;;;;1.48;0.95;;;;;;;8.89;100.00;102323.34;5020043;28;20087;-84
2023/11/24 01:47:47;;;;;;;4.47;1.08;;;;;;;8.92;100.00;102323.97;5019978;28;20044;-83
2023/11/24 01:50:13;;;;;;;1.63;1.00;;;;;;;8.94;100.00;102323.81;5019985;28;20029;-84
2023/11/24 01:52:39;;;;;;;3.67;0.80;;;;;;;9.03;100.00;102323.06;5035724;28;20035;-84
2023/11/24 01:55:06;;;;;;;2.78;0.70;;;;;;;9.11;100.00;102327.81;5019839;28;20075;-85
2023/11/24 01:57:33;;;;;;;1.20;0.75;;;;;;;9.15;100.00;102324.72;5035623;28;20032;-84
2023/11/24 01:59:59;;;;;;;1.42;0.77;;;;;;;9.18;100.00;102323.59;5019818;28;20037;-84
2023/11/24 02:02:25;;;;;;;1.00;0.70;;;;;;;9.22;100.00;102320.53;5035970;28;20183;-83
2023/11/24 02:04:50;;;;;;;2.42;0.77;;;;;;;9.24;100.00;102320.44;5019893;28;20131;-84
2023/11/24 02:07:18;;;;;;;2.08;0.80;;;;;;;9.28;100.00;102323.69;5004193;28;20480;-84
2023/11/24 02:09:44;;;;;;;3.33;0.90;;;;;;;9.27;100.00;102328.22;5019764;28;20044;-83
2023/11/24 02:12:10;;;;;;;2.88;0.80;;;;;;;9.31;100.00;102326.13;5022997;28;20067;-84
2023/11/24 02:14:39;;;;;;;3.67;0.90;;;;;;;9.29;100.00;102326.25;5040893;28;20029;-84
2023/11/24 02:17:04;;;;;;;1.75;0.70;;;;;;;9.33;100.00;102332.22;5053430;28;20494;-84
2023/11/24 02:19:31;;;;;;;1.50;0.93;;;;;;;9.36;100.00;102331.94;5035824;28;20479;-84
2023/11/24 02:22:01;;;;;;;2.17;0.90;;;;;;;9.36;100.00;102332.81;5036088;28;20111;-85
2023/11/24 02:24:27;;;;;;;1.95;0.80;;;;;;;9.37;100.00;102328.31;5052241;28;20040;-85
2023/11/24 02:26:58;;;;;;;1.33;0.70;;;;;;;9.36;100.00;102334.63;5052373;28;20036;-84
2023/11/24 02:29:24;;;;;;;3.58;0.70;;;;;;;9.39;100.00;102337.06;5019380;28;20460;-84
2023/11/24 02:31:49;;;;;;;1.25;0.70;;;;;;;9.43;100.00;102325.94;5019193;28;20531;-85
2023/11/24 02:34:15;;;;;;;2.55;0.90;;;;;;;9.47;100.00;102337.25;5035453;28;20064;-85
2023/11/24 02:36:42;;;;;;;2.05;0.70;;;;;;;9.45;100.00;102332.03;5035380;28;20032;-84
2023/11/24 02:39:08;;;;;;;2.33;0.93;;;;;;;9.51;100.00;102330.66;5036051;28;20402;-83
2023/11/24 02:41:34;;;;;;;1.05;0.75;;;;;;;9.51;100.00;102330.66;5035618;28;20053;-84
2023/11/24 02:44:00;;;;;;;4.75;1.10;;;;;;;9.55;100.00;102331.25;5035444;28;20391;-85
2023/11/24 02:46:26;;;;;;;1.63;0.82;;;;;;;9.58;100.00;102339.91;5019439;28;20028;-85
2023/11/24 02:48:52;;;;;;;1.38;0.88;;;;;;;9.60;100.00;102335.22;5018858;28;20364;-83
2023/11/24 02:51:18;;;;;;;2.72;0.90;;;;;;;9.61;100.00;102341.47;5037339;28;20390;-84
2023/11/24 02:53:44;;;;;;;2.53;1.10;;;;;;;9.57;100.00;102335.50;5056848;28;20483;-83
2023/11/24 02:56:14;;;;;;;3.83;0.85;;;;;;;9.58;100.00;102339.03;5039792;28;20051;-85
2023/11/24 02:58:39;;;;;;;0.85;0.68;;;;;;;9.57;100.00;102346.25;5039686;28;20037;-84
2023/11/24 03:01:07;;;;;;;1.52;1.00;;;;;;;9.58;100.00;102347.97;5039000;28;20028;-85
2023/11/24 03:03:33;;;;;;;1.65;0.80;;;;;;;9.57;100.00;102343.56;5022943;28;20052;-84
2023/11/24 03:06:05;;;;;;;1.08;0.80;;;;;;;9.54;100.00;102346.50;5039318;28;20025;-84
2023/11/24 03:08:34;;;;;;;1.02;0.80;;;;;;;9.54;100.00;102354.56;5039679;28;20033;-85
2023/11/24 03:11:03;;;;;;;2.70;0.93;;;;;;;9.52;100.00;102356.53;5022673;28;20090;-84
2023/11/24 03:13:31;;;;;;;2.25;0.80;;;;;;;9.51;100.00;102345.94;5039982;28;20076;-85
2023/11/24 03:15:57;;;;;;;1.40;0.88;;;;;;;9.48;100.00;102341.66;5022546;28;20438;-84
2023/11/24 03:18:26;;;;;;;2.20;0.80;;;;;;;9.48;100.00;102338.13;5022357;28;20032;-84
2023/11/24 03:20:53;;;;;;;1.33;0.88;;;;;;;9.46;100.00;102332.88;5022558;28;20463;-84
2023/11/24 03:23:19;;;;;;;1.20;0.90;;;;;;;9.46;100.00;102332.88;5039012;28;20032;-83
2023/11/24 03:25:47;;;;;;;2.80;0.90;;;;;;;9.46;100.00;102332.88;5039110;28;20033;-84
2023/11/24 03:28:13;;;;;;;1.70;1.02;;;;;;;9.45;100.00;102321.28;5038897;28;20033;-85
2023/11/24 03:30:39;;;;;;;1.98;0.90;;;;;;;9.43;100.00;102322.41;5022279;28;20033;-84
2023/11/24 03:33:05;;;;;;;2.78;0.82;;;;;;;9.42;100.00;102320.69;5038567;28;20028;-86
2023/11/24 03:35:31;;;;;;;3.63;0.90;;;;;;;9.37;100.00;102310.34;5022381;28;20064;-84
2023/11/24 03:37:57;;;;;;;1.70;1.00;;;;;;;9.34;100.00;102313.31;5022058;28;20427;-84
2023/11/24 03:40:24;;;;;;;1.63;1.00;;;;;;;9.33;100.00;102310.75;5022239;28;20140;-85
2023/11/24 03:42:49;;;;;;;2.38;0.80;;;;;;;9.35;100.00;102311.47;5038319;28;20388;-83
2023/11/24 03:45:15;;;;;;;1.48;0.70;;;;;;;9.35;100.00;102306.09;5022280;28;20044;-84
2023/11/24 03:47:41;;;;;;;1.50;0.80;;;;;;;9.36;100.00;102302.41;5022233;28;20187;-84
2023/11/24 03:50:09;;;;;;;1.63;0.90;;;;;;;9.39;100.00;102300.34;5055352;28;20040;-84
2023/11/24 03:52:35;;;;;;;1.83;0.90;;;;;;;9.38;100.00;102297.78;5038498;28;20387;-84
2023/11/24 03:55:01;;;;;;;2.88;0.82;;;;;;;9.34;100.00;102296.31;5054730;28;20107;-84
2023/11/24 03:57:27;;;;;;;1.60;0.80;;;;;;;9.32;100.00;102301.84;5021673;28;20025;-85
2023/11/24 03:59:52;;;;;;;3.20;0.90;;;;;;;9.30;100.00;102294.91;5054604;28;20468;-84
2023/11/24 04:02:18;;;;;;;1.33;0.90;;;;;;;9.28;100.00;102295.00;5021461;28;20060;-84
2023/11/24 04:04:46;;;;;;;2.60;1.00;;;;;;;9.25;100.00;102300.66;5054515;28;20025;-84
2023/11/24 04:07:13;;;;;;;2.13;0.80;;;;;;;9.16;100.00;102283.50;5022130;28;20116;-84
2023/11/24 04:09:39;;;;;;;2.55;1.13;;;;;;;9.23;100.00;102298.13;5021710;28;20118;-83
2023/11/24 04:12:04;;;;;;;1.23;0.90;;;;;;;9.20;100.00;102295.66;5021391;28;20441;-83
2023/11/24 04:14:33;;;;;;;3.67;1.30;;;;;;;9.17;100.00;102295.06;5037465;28;20060;-83
2023/11/24 04:16:59;;;;;;;3.65;1.10;;;;;;;9.14;100.00;102296.19;5054609;28;20091;-84
2023/11/24 04:19:24;;;;;;;5.80;1.00;;;;;;;9.14;100.00;102300.72;5054500;28;20029;-84
2023/11/24 04:21:50;;;;;;;1.05;0.80;;;;;;;9.17;100.00;102297.75;5055781;28;20032;-83
2023/11/24 04:24:16;;;;;;;1.00;0.77;;;;;;;9.18;100.00;102296.78;5041197;28;20098;-83
2023/11/24 04:26:41;;;;;;;2.58;1.02;;;;;;;9.19;100.00;102299.34;5037638;28;20045;-84
2023/11/24 04:29:07;;;;;;;2.95;0.90;;;;;;;9.19;100.00;102299.34;5037567;28;20037;-84
2023/11/24 04:31:35;;;;;;;1.05;0.80;;;;;;;9.21;100.00;102289.34;5005038;28;20388;-84
2023/11/24 04:34:03;;;;;;;2.28;0.95;;;;;;;9.21;100.00;102288.47;5037259;28;20025;-84
2023/11/24 04:36:29;;;;;;;4.47;1.17;;;;;;;9.22;100.00;102293.72;5021340;28;20467;-84
2023/11/24 04:38:55;;;;;;;1.45;0.80;;;;;;;9.21;100.00;102292.00;5037605;28;20041;-84
2023/11/24 04:41:20;;;;;;;0.98;0.80;;;;;;;9.25;100.00;102289.91;5020796;28;20115;-83
2023/11/24 04:43:46;;;;;;;1.98;0.80;;;;;;;9.27;100.00;102287.09;5053584;28;20036;-84
2023/11/24 04:46:14;;;;;;;1.10;0.80;;;;;;;9.25;100.00;102276.50;5037173;28;20391;-84
2023/11/24 04:48:40;;;;;;;0.90;0.70;;;;;;;9.25;100.00;102284.53;5037200;28;20426;-85
2023/11/24 04:51:06;;;;;;;3.25;1.08;;;;;;;9.26;100.00;102288.91;5037648;28;20032;-84
2023/11/24 04:53:32;;;;;;;1.60;0.80;;;;;;;9.27;100.00;102287.09;5036965;28;20029;-84
2023/11/24 04:56:00;;;;;;;2.47;0.75;;;;;;;9.19;100.00;102280.56;5037086;28;20029;-84
2023/11/24 04:58:28;;;;;;;1.83;0.80;;;;;;;9.20;100.00;102273.34;5020824;28;20434;-84
2023/11/24 05:00:54;;;;;;;2.47;0.73;;;;;;;9.19;100.00;102283.22;5020802;28;20024;-83
2023/11/24 05:03:19;;;;;;;1.35;0.80;;;;;;;9.17;100.00;102277.13;5020676;28;20033;-83
2023/11/24 05:05:46;;;;;;;2.40;1.10;;;;;;;9.17;100.00;102276.28;5037234;28;20513;-84
2023/11/24 05:08:14;;;;;;;1.02;0.80;;;;;;;9.15;100.00;102275.56;5020639;28;20037;-85
2023/11/24 05:10:40;;;;;;;1.27;0.90;;;;;;;9.13;100.00;102278.41;5037040;28;20442;-84
2023/11/24 05:13:07;;;;;;;1.10;0.70;;;;;;;9.13;100.00;102275.72;5036189;28;20044;-84
2023/11/24 05:15:34;;;;;;;3.15;0.70;;;;;;;9.14;100.00;102271.19;5036797;28;20035;-84
2023/11/24 05:18:04;;;;;;;1.52;0.80;;;;;;;9.14;100.00;102266.66;5036947;28;20512;-83
2023/11/24 05:20:29;;;;;;;5.00;1.00;;;;;;;9.08;100.00;102251.09;5032409;28;20041;-84
2023/11/24 05:22:55;;;;;;;2.78;1.17;;;;;;;9.13;100.00;102256.03;5036705;28;20025;-84
2023/11/24 05:25:21;;;;;;;2.83;0.93;;;;;;;9.11;100.00;102253.50;5036268;28;20025;-84
2023/11/24 05:27:49;;;;;;;1.90;1.00;;;;;;;9.11;100.00;102258.03;5020090;28;20475;-83
2023/11/24 05:30:15;;;;;;;1.50;1.10;;;;;;;9.10;100.00;102257.16;5019894;28;20449;-84
2023/11/24 05:32:41;;;;;;;1.73;0.90;;;;;;;9.08;100.00;102256.47;5020362;28;20044;-83
2023/11/24 05:35:07;;;;;;;3.08;1.02;;;;;;;9.08;100.00;102252.94;5036576;28;20037;-84
2023/11/24 05:37:33;;;;;;;2.78;1.00;;;;;;;9.07;100.00;102249.38;5036322;28;20035;-84
2023/11/24 05:40:05;;;;;;;2.17;1.00;;;;;;;9.07;100.00;102246.69;5036500;28;20390;-84
2023/11/24 05:42:31;;;;;;;1.55;0.82;;;;;;;9.08;100.00;102258.28;5052896;28;20045;-85
2023/11/24 05:44:57;;;;;;;1.45;1.02;;;;;;;9.05;100.00;102251.34;5036319;28;20103;-84
2023/11/24 05:47:23;;;;;;;1.98;1.05;;;;;;;9.08;100.00;102252.94;5019716;28;20044;-84
2023/11/24 05:49:51;;;;;;;1.48;0.90;;;;;;;9.09;100.00;102249.25;5019876;28;20127;-84
2023/11/24 05:52:20;;;;;;;3.65;1.00;;;;;;;9.08;100.00;102253.78;5052547;28;20029;-83
2023/11/24 05:54:45;;;;;;;3.08;1.00;;;;;;;9.09;100.00;102247.41;5036595;28;20036;-84
2023/11/24 05:57:11;;;;;;;2.75;1.00;;;;;;;9.09;100.00;102258.16;5019714;28;20033;-84
2023/11/24 05:59:39;;;;;;;2.25;1.05;;;;;;;9.08;100.00;102252.94;5019803;28;20048;-84
2023/11/24 06:02:06;;;;;;;3.22;1.00;;;;;;;9.10;100.00;102262.53;5052815;28;20041;-84
2023/11/24 06:04:35;;;;;;;0.95;0.73;;;;;;;9.12;100.00;102254.34;5019793;28;20044;-85
2023/11/24 06:07:01;;;;;;;2.33;0.80;;;;;;;9.10;100.00;102242.91;5019289;28;20060;-84
2023/11/24 06:09:26;;;;;;;2.38;0.90;;;;;;;9.10;100.00;102237.53;5019638;28;20557;-83
2023/11/24 06:11:52;;;;;;;4.45;1.20;;;;;;;9.09;100.00;102239.38;5035949;28;20033;-84
2023/11/24 06:14:18;;;;;;;0.88;0.75;;;;;;;9.07;100.00;102233.28;5019661;28;20064;-85
2023/11/24 06:16:44;;;;;;;1.77;1.15;;;;;;;9.06;100.00;102242.31;5036145;28;20066;-84
2023/11/24 06:19:10;;;;;;;6.88;1.33;;;;;;;9.06;100.00;102239.63;5019532;28;20032;-84
2023/11/24 06:21:36;;;;;;;1.73;0.90;;;;;;;9.09;100.00;102239.38;5019451;28;20032;-84
2023/11/24 06:24:02;;;;;;;5.95;1.20;;;;;;;9.07;100.00;102227.91;5035927;28;20053;-84
2023/11/24 06:26:30;;;;;;;2.60;1.10;;;;;;;9.13;100.00;102234.59;5019288;28;20060;-83
2023/11/24 06:28:59;;;;;;;6.28;1.30;;;;;;;9.15;100.00;102233.47;5019519;28;20075;-83
2023/11/24 06:31:25;;;;;;;7.43;1.30;;;;;;;9.12;100.00;102227.53;5035944;28;20037;-82
2023/11/24 06:33:51;;;;;;;3.65;1.20;;;;;;;9.12;100.00;102227.53;5022008;28;20110;-83
2023/11/24 06:36:17;;;;;;;9.40;1.40;;;;;;;9.09;100.00;102225.94;5020617;28;20033;-84
2023/11/24 06:38:43;;;;;;;7.47;1.13;;;;;;;9.09;100.00;102233.16;5035290;28;20021;-84
2023/11/24 06:41:09;;;;;;;7.35;1.77;;;;;;;9.09;100.00;102231.31;5051905;28;20544;-84
2023/11/24 06:43:37;;;;;;;5.38;1.50;;;;;;;9.10;100.00;102233.00;5019566;28;20040;-84
2023/11/24 06:46:05;;;;;;;6.00;1.70;;;;;;;9.12;100.00;102236.41;5019370;28;20095;-84
2023/11/24 06:48:38;;;;;;;11.80;1.95;;;;;;;9.11;100.00;102232.03;5019453;28;20039;-84
2023/11/24 06:51:07;;;;;;;7.78;1.52;;;;;;;9.12;100.00;102239.09;5036207;28;20082;-84
2023/11/24 06:53:33;;;;;;;7.43;1.92;;;;;;;9.14;100.00;102247.88;5035894;28;20044;-83
2023/11/24 06:55:58;;;;;;;14.48;2.25;;;;;;;9.14;100.00;102239.84;5035224;28;20033;-85
2023/11/24 06:58:26;;;;;;;5.18;1.70;;;;;;;9.11;100.00;102233.88;5051494;28;20106;-84
2023/11/24 07:00:51;;;;;;;12.45;1.75;;;;;;;9.09;100.00;102238.53;5019051;28;20033;-84
2023/11/24 07:03:18;;;;;;;6.70;1.70;;;;;;;9.08;100.00;102242.19;5019115;28;20063;-84
2023/11/24 07:05:44;;;;;;;5.70;1.63;;;;;;;9.02;100.00;102244.41;5035495;28;20036;-84
2023/11/24 07:08:12;;;;;;;9.38;1.58;;;;;;;9.00;100.00;102240.16;5051942;28;20086;-84
2023/11/24 07:10:37;;;;;;;10.20;1.60;;;;;;;8.96;100.00;102242.22;5019147;28;20041;-85
2023/11/24 07:13:03;;;;;;;8.15;1.90;;;;;;;8.95;100.00;102239.69;5019009;28;20464;-84
2023/11/24 07:15:29;;;;;;;9.10;2.13;;;;;;;8.93;100.00;102229.06;5051567;28;20118;-84
2023/11/24 07:17:55;;;;;;;9.88;2.60;;;;;;;8.91;100.00;102230.19;5018565;28;20037;-83
2023/11/24 07:20:21;;;;;;;9.13;2.40;;;;;;;8.90;100.00;102229.34;5017354;28;20032;-83
2023/11/24 07:22:49;;;;;;;12.25;2.70;;;;;;;8.89;100.00;102232.13;5035055;28;20029;-84
2023/11/24 07:25:14;;;;;;;9.68;2.30;;;;;;;8.86;100.00;102227.88;5035183;28;20041;-84
2023/11/24 07:27:41;;;;;;;15.43;2.28;;;;;;;8.88;100.00;102230.44;5018891;28;20044;-84
2023/11/24 07:30:09;;;;;;;10.27;2.00;;;;;;;8.85;100.00;102231.56;5018801;28;20052;-83
2023/11/24 07:32:36;;;;;;;11.50;2.65;;;;;;;8.83;100.00;102233.50;5035198;28;20047;-84
2023/11/24 07:35:03;;;;;;;11.68;2.42;;;;;;;8.79;100.00;102226.72;5018633;28;20040;-84
2023/11/24 07:37:31;;;;;;;10.93;1.92;;;;;;;8.78;100.00;102225.84;5037146;28;20029;-83
2023/11/24 07:39:58;;;;;;;12.55;2.08;;;;;;;8.76;100.00;102233.19;5022355;28;20029;-84
2023/11/24 07:42:26;;;;;;;9.25;1.83;;;;;;;8.78;100.00;102217.78;5038977;28;20040;-83
2023/11/24 07:44:52;;;;;;;11.18;2.30;;;;;;;8.78;100.00;102219.63;5054794;28;20037;-84
2023/11/24 07:47:18;;;;;;;13.15;2.00;;;;;;;8.78;100.00;102225.00;5038672;28;20103;-84
2023/11/24 07:49:47;;;;;;;15.23;3.38;;;;;;;8.78;100.00;102222.31;5054959;28;20128;-84
2023/11/24 07:52:13;;;;;;;13.23;2.15;;;;;;;8.76;100.00;102222.47;5022071;28;20033;-84
2023/11/24 07:54:42;;;;;;;11.05;2.40;;;;;;;8.76;100.00;102227.81;5022350;28;20128;-84
2023/11/24 07:57:10;;;;;;;12.48;2.55;;;;;;;8.75;100.00;102228.78;5038849;28;20029;-84
2023/11/24 07:59:38;;;;;;;14.38;3.33;;;;;;;8.75;100.00;102230.63;5021899;28;20119;-83
2023/11/24 08:02:04;;;;;;;12.68;2.75;;;;;;;8.75;100.00;102231.47;5038655;28;20036;-84
2023/11/24 08:04:32;;;;;;;10.90;2.55;;;;;;;8.75;100.00;102233.31;5022547;28;20029;-83
2023/11/24 08:07:00;;;;;;;14.30;2.17;;;;;;;8.76;100.00;102241.22;5021866;28;20039;-83
2023/11/24 08:09:26;;;;;;;13.45;2.13;;;;;;;8.78;100.00;102244.59;5005513;28;20463;-83
2023/11/24 08:11:55;;;;;;;18.08;2.38;;;;;;;8.79;100.00;102251.69;5021793;28;20040;-83
2023/11/24 08:14:23;;;;;;;9.82;2.22;;;;;;;8.74;100.00;102251.22;5037904;28;20120;-83
2023/11/24 08:16:55;;;;;;;14.95;2.60;;;;;;;8.77;100.00;102259.00;5038429;28;20037;-85
2023/11/24 08:19:25;;;;;;;17.83;3.40;;;;;;;8.78;100.00;102257.19;5054181;28;20029;-84
2023/11/24 08:21:56;;;;;;;14.00;2.72;;;;;;;8.79;100.00;102256.22;5022242;28;20029;-83
2023/11/24 08:24:22;;;;;;;17.30;3.53;;;;;;;8.76;100.00;102243.91;5022357;28;20101;-83
2023/11/24 08:26:47;;;;;;;25.13;3.85;;;;;;;8.76;100.00;102246.59;5022143;28;20033;-84
2023/11/24 08:29:19;;;;;;;13.90;3.08;;;;;;;8.73;100.00;102248.66;5038343;28;20041;-84
2023/11/24 08:31:48;;;;;;;14.45;3.13;;;;;;;8.70;100.00;102252.44;5021454;28;20055;-83
2023/11/24 08:34:15;;;;;;;18.75;3.70;;;;;;;8.71;100.00;102253.31;5054061;28;20131;-84
2023/11/24 08:36:46;;;;;;;21.35;4.30;;;;;;;8.69;100.00;102252.59;5021206;28;20037;-84
2023/11/24 08:39:15;;;;;;;18.23;4.50;;;;;;;8.71;100.00;102256.00;5037689;28;20460;-84
2023/11/24 08:41:47;;;;;;;13.98;3.38;;;;;;;8.70;100.00;102257.81;5054057;28;20047;-84
2023/11/24 08:44:17;;;;;;;9.43;2.50;;;;;;;8.69;100.00;102264.16;5021388;28;20040;-85
2023/11/24 08:46:43;;;;;;;13.27;2.63;;;;;;;8.64;100.00;102257.47;5019963;28;20128;-85
2023/11/24 08:49:10;;;;;;;12.52;3.08;;;;;;;8.51;100.00;102260.31;5019613;28;20179;-85
2023/11/24 08:51:36;;;;;;;15.98;3.25;;;;;;;8.46;100.00;102270.56;5036507;28;20102;-84
2023/11/24 08:54:03;;;;;;;17.90;3.20;;;;;;;8.42;100.00;102261.06;5019512;28;20472;-85
2023/11/24 08:56:33;;;;;;;11.57;3.38;;;;;;;8.40;100.00;102268.38;5051913;28;20029;-84
2023/11/24 08:58:59;;;;;;;8.30;2.40;;;;;;;8.37;100.00;102259.56;5019129;28;20037;-84
2023/11/24 09:01:25;;;;;;;13.82;4.07;;;;;;;8.33;100.00;102258.09;5036116;28;20483;-84
2023/11/24 09:03:55;;;;;;;23.23;5.40;;;;;;;8.27;100.00;102257.78;5020727;28;20032;-84
2023/11/24 09:06:27;;;;;;;10.00;2.63;;;;;;;8.23;100.00;102253.63;5021584;28;20493;-85
2023/11/24 09:08:53;;;;;;;16.05;2.80;;;;;;;8.21;100.00;102259.13;5053389;28;20032;-84
2023/11/24 09:11:19;;;;;;;14.52;3.20;;;;;;;8.17;100.00;102264.84;5036987;28;20467;-85
2023/11/24 09:13:45;;;;;;;21.40;2.72;;;;;;;8.08;100.00;102266.44;5036981;28;20075;-86
2023/11/24 09:16:10;;;;;;;18.85;2.90;;;;;;;8.10;100.00;102261.81;5020535;28;20033;-85
2023/11/24 09:18:36;;;;;;;16.98;5.07;;;;;;;8.12;100.00;102267.88;5020211;28;20048;-85
2023/11/24 09:21:01;;;;;;;13.65;4.43;;;;;;;8.23;100.00;102273.25;5021758;28;20037;-84
2023/11/24 09:23:27;;;;;;;16.58;4.18;;;;;;;8.28;100.00;102271.06;5040381;28;20036;-84
2023/11/24 09:25:56;;;;;;;15.70;2.85;;;;;;;8.30;100.00;102271.75;5028909;28;20035;-84
2023/11/24 09:28:21;;;;;;;15.43;2.60;;;;;;;8.35;100.00;102272.25;5019906;28;20131;-84
2023/11/24 09:30:47;;;;;;;12.93;2.80;;;;;;;8.50;100.00;102263.97;5036315;28;20379;-85
2023/11/24 09:33:14;;;;;;;16.00;3.08;;;;;;;8.67;100.00;102268.78;5019964;28;20482;-84
2023/11/24 09:35:39;;;;;;;16.20;3.13;;;;;;;8.75;100.00;102268.16;5020148;28;20123;-84
2023/11/24 09:38:06;;;;;;;15.95;3.33;;;;;;;8.80;100.00;102264.13;5019852;28;20035;-83
2023/11/24 09:40:33;;;;;;;14.32;3.17;;;;;;;8.78;100.00;102258.03;5036412;28;20040;-85
2023/11/24 09:43:03;;;;;;;19.02;2.85;;;;;;;8.75;100.00;102262.81;5020296;28;20383;-83
2023/11/24 09:45:32;;;;;;;16.42;3.65;;;;;;;8.71;100.00;102246.13;5067386;28;20036;-83
2023/11/24 09:48:01;;;;;;;16.38;3.22;;;;;;;8.74;100.00;102250.38;5022670;28;20131;-84
2023/11/24 09:50:27;;;;;;;16.92;2.95;;;;;;;8.74;100.00;102256.59;5036015;28;20028;-84
2023/11/24 09:52:54;;;;;;;15.98;2.53;;;;;;;8.89;100.00;102262.53;5019853;28;20120;-84
2023/11/24 09:55:24;;;;;;;16.95;3.72;;;;;;;9.17;100.00;102262.88;5035994;28;20047;-83
2023/11/24 09:57:50;;;;;;;14.48;3.10;;;;;;;9.51;100.00;102258.16;5003762;28;20036;-85
2023/11/24 10:00:16;;;;;;;14.38;2.88;;;;;;;9.74;100.00;102264.25;5019291;28;20044;-84
2023/11/24 10:02:42;;;;;;;14.77;2.95;;;;;;;9.83;100.00;102257.19;5052626;28;20051;-84
2023/11/24 10:05:12;;;;;;;14.30;3.67;;;;;;;9.89;100.00;102265.56;5019772;28;20037;-85
2023/11/24 10:07:38;;;;;;;12.20;2.63;;;;;;;9.82;100.00;102256.34;5052371;28;20636;-84
2023/11/24 10:10:05;;;;;;;15.52;4.97;;;;;;;9.73;100.00;102267.03;5019197;28;20048;-83
2023/11/24 10:12:31;;;;;;;14.85;2.58;;;;;;;9.75;100.00;102263.25;5019591;28;20475;-84
2023/11/24 10:15:00;;;;;;;17.70;2.80;;;;;;;9.79;100.00;102262.00;5034027;28;20029;-85
2023/11/24 10:17:25;;;;;;;16.83;2.80;;;;;;;9.78;100.00;102259.44;5019332;28;20044;-84
2023/11/24 10:19:54;;;;;;;14.77;2.72;;;;;;;9.81;100.00;102253.78;5035917;28;20028;-84
2023/11/24 10:22:23;;;;;;;19.10;3.33;;;;;;;10.05;100.00;102258.84;5035037;28;20040;-84
2023/11/24 10:24:49;;;;;;;14.60;2.90;;;;;;;10.02;100.00;102265.34;5019557;28;20040;-84
2023/11/24 10:27:20;;;;;;;9.38;2.40;;;;;;;10.09;100.00;102266.50;5018863;28;20037;-84
2023/11/24 10:29:50;;;;;;;11.63;2.92;;;;;;;10.18;100.00;102255.91;5035586;28;20037;-83
2023/11/24 10:32:19;;;;;;;16.52;4.07;;;;;;;10.11;100.00;102258.31;5019272;28;20040;-84
2023/11/24 10:34:46;;;;;;;15.50;3.25;;;;;;;10.11;100.00;102251.09;5035869;28;20310;-84
2023/11/24 10:37:17;;;;;;;13.93;3.00;;;;;;;10.21;100.00;102253.81;5036112;28;20083;-84
2023/11/24 10:39:50;;;;;;;13.88;3.58;;;;;;;10.23;100.00;102253.69;5052359;28;20068;-84
2023/11/24 10:42:19;;;;;;;16.77;3.38;;;;;;;10.09;100.00;102245.00;5020269;28;20041;-84
2023/11/24 10:44:50;;;;;;;16.17;3.65;;;;;;;10.15;100.00;102245.44;5018536;28;20032;-86
2023/11/24 10:47:36;;;;;;;19.50;3.85;;;;;;;10.43;100.00;102247.41;5021184;28;20426;-84
2023/11/24 10:50:12;;;;;;;16.20;4.05;;;;;;;10.43;100.00;102250.09;5019587;28;20040;-84
2023/11/24 10:53:10;;;;;;;16.98;3.85;;;;;;;10.42;100.00;102250.22;5051833;28;20472;-83
2023/11/24 10:55:38;;;;;;;;;;;;;;;10.42;100.00;102243.00;5052281;28;20494;-85
2023/11/24 10:58:05;;;;;;;13.50;3.42;;;;;;;10.53;100.00;102252.78;5051167;28;19919;-84
2023/11/24 11:00:30;;;;;;;14.70;3.10;;;;;;;10.64;100.00;102247.28;5034277;28;20035;-84
2023/11/24 11:02:57;;;;;;;10.45;2.90;;;;;;;10.72;100.00;102238.53;5019110;28;20123;-83
2023/11/24 11:06:00;;;;;;;16.35;3.20;;;;;;;10.49;100.00;102238.78;5019093;28;20471;-83
2023/11/24 11:08:36;;;;;;;17.33;3.20;;;;;;;10.47;100.00;102235.34;5051691;28;20035;-83
2023/11/24 11:11:02;;;;;;;22.33;4.38;;;;;;;10.45;100.00;102228.41;5035325;28;20033;-83
2023/11/24 11:13:30;;;;;;;19.67;3.72;;;;;;;10.49;100.00;102229.84;5055209;28;20168;-83
2023/11/24 11:15:56;;;;;;;15.02;2.67;;;;;;;10.46;100.00;102230.97;5022983;28;20032;-83
2023/11/24 11:18:25;;;;;;;13.77;3.80;;;;;;;10.48;100.00;102223.63;5038814;28;20032;-83
2023/11/24 11:20:51;;;;;;;7.97;2.58;;;;;;;10.64;100.00;102222.22;5022287;28;20033;-83
2023/11/24 11:23:19;;;;;;;20.05;3.88;;;;;;;10.63;100.00;102220.53;5055625;28;20067;-82